Rechercher aéroport 
image banner adimage banner adimage banner ad
image banner ad

3CL0 - Uc Davis Medical Center Tower Ii

Situé à Sacramento, United States

ICAO - 3CL0, IATA -

Données fournies par Airmate  

Information générale

Coordonnées: N38°33'18" W121°27'20"
Élévation : 236 feet MSL.
Variation magnétique : 15° East
Voir autres Aéroports à California

Données opérationnelles

Special qualification required
Heure actuelle UTC:
Heure actuelle locale:
Météo à : KSAC - Sacramento Executive ( 6 km )
METAR: KSAC 292153Z 24005KT 10SM CLR 38/14 A2982 RMK AO2 SLP096 T03780144
TAF: KSAC 291812Z 2918/3018 20005KT P6SM BKN200 FM292000 23008KT P6SM SCT250 FM301100 18003KT P6SM BKN150
Voir NOTAMs / SUP AIP / TFR affectant cet aéroport [VIEW]
Fréquences de communication: [VIEW]

Pistes:

Coordonnées de l'aéroport

Adresse: Sacramento United States

Vue satellite de 3CL0